• Join FlightAware (Why Join?)
  • Login
  • US Flag 
11:48PM EDT


 

Airport Tracker/Info


-or-


 

Live Flight TrackerFlight Track Log ✈ EJM949 ✈ 03-Oct-2013 ✈ KSFO - KASE

Flight Track Log - Related Links

Times and Time Zones

All times are in EDT time to prevent confusion due to time zone crossing. See the EJM949 flight status page for this flight to view local times or setup timezone preferences in your user account.

Time Position Orientation Groundspeed Altitude Reporting Facility
EDT Latitude Longitude Course Direction KTS MPH feet Rate Location/Type
06:22PM 37.6333 -122.4000 293° West 170 196 2,000  Level Northern Cal TRACON
06:23PM 37.6500 -122.4500 293° West 206 237 3,000 600 Climbing Northern Cal TRACON
06:24PM 37.6833 -122.5167 302° West 204 235 3,200 2,700 Climbing Northern Cal TRACON
06:26PM 37.7333 -122.5333 345° North 193 222 8,700 3,840 Climbing Northern Cal TRACON
06:27PM 37.8000 -122.5333 360° North 273 314 11,300 2,280 Climbing Northern Cal TRACON
06:27PM 37.8167 -122.4333 78° East 356 410 13,100 2,700 Climbing Northern Cal TRACON
06:30PM 37.8792 -122.1200 76° East 404 465 20,400 2,940 Climbing Oakland Center
06:31PM 37.9050 -121.9758 77° East 419 482 23,200 2,460 Climbing Oakland Center
06:32PM 37.9325 -121.8203 77° East 448 516 25,500 2,160 Climbing Oakland Center
06:33PM 37.9600 -121.6614 78° East 460 529 27,700 2,220 Climbing Oakland Center
06:34PM 37.9881 -121.4856 79° East 462 532 30,100 2,160 Climbing Oakland Center
06:35PM 38.0153 -121.3292 77° East 459 528 32,200 1,980 Climbing Oakland Center
06:36PM 38.0408 -121.1753 78° East 452 520 34,200 1,980 Climbing Oakland Center
06:37PM 38.0644 -121.0206 79° East 451 519 36,300 2,160 Climbing Oakland Center
06:38PM 38.0939 -120.8411 78° East 441 507 38,700 2,100 Climbing Oakland Center
06:39PM 38.1158 -120.6958 79° East 427 491 40,700 1,860 Climbing Oakland Center
06:40PM 38.1383 -120.5514 79° East 421 484 42,600 1,380 Climbing Oakland Center
06:41PM 38.1606 -120.4050 79° East 422 486 43,600 780 Climbing Oakland Center
06:42PM 38.1839 -120.2542 79° East 435 501 44,200 480 Climbing Oakland Center
06:43PM 38.2103 -120.0939 78° East 459 528 44,600 360 Climbing Oakland Center
06:44PM 38.2339 -119.9347 79° East 461 531 45,000 180 Climbing Oakland Center
06:45PM 38.2628 -119.7414 79° East 467 537 45,000  Level Oakland Center
06:46PM 38.2881 -119.5711 79° East 487 560 45,000  Level Oakland Center
06:47PM 38.3089 -119.4178 80° East 497 572 45,000  Level Oakland Center
06:48PM 38.3400 -119.2117 79° East 497 572 45,000  Level Oakland Center
06:49PM 38.3639 -119.0403 80° East 495 570 45,000  Level Oakland Center
06:50PM 38.3889 -118.8686 79° East 495 570 45,000  Level Oakland Center
06:51PM 38.4128 -118.6936 80° East 504 580 45,000  Level Oakland Center
06:52PM 38.4375 -118.5203 80° East 500 575 45,000  Level Oakland Center
06:53PM 38.4617 -118.3467 80° East 499 574 45,000  Level Oakland Center
06:54PM 38.4844 -118.1722 80° East 501 577 45,000  Level Oakland Center
06:55PM 38.5078 -117.9989 80° East 499 574 45,000  Level Oakland Center
06:56PM 38.5358 -117.7886 80° East 499 574 45,000  Level Oakland Center
06:57PM 38.5594 -117.6089 80° East 506 582 45,000  Level Oakland Center
06:58PM 38.5814 -117.4303 81° East 505 581 45,000  Level Oakland Center
07:00PM 38.6039 -117.2511 81° East 506 582 45,000  Level Oakland Center
07:01PM 38.6267 -117.0686 81° East 513 590 45,000  Level Oakland Center
07:02PM 38.6492 -116.8903 81° East 507 583 45,000  Level Oakland Center
07:03PM 38.6703 -116.7147 81° East 499 574 45,000  Level Oakland Center
07:04PM 38.6922 -116.5369 81° East 502 578 45,000  Level Oakland Center
07:05PM 38.7131 -116.3561 82° East 509 586 45,000  Level Oakland Center
07:06PM 38.7342 -116.1753 81° East 512 589 45,000  Level Oakland Center
07:07PM 38.7628 -115.9206 82° East 516 594 45,000  Level Salt Lake Center
07:08PM 38.7836 -115.7392 82° East 514 592 45,000  Level Salt Lake Center
07:09PM 38.8078 -115.5203 82° East 517 595 45,000  Level Salt Lake Center
07:10PM 38.8281 -115.3489 81° East 516 594 45,000  Level Salt Lake Center
07:11PM 38.8483 -115.1642 82° East 523 602 45,000  Level Salt Lake Center
07:12PM 38.8686 -114.9806 82° East 521 600 45,000  Level Salt Lake Center
07:13PM 38.8881 -114.7953 82° East 523 602 45,000  Level Salt Lake Center
07:14PM 38.9117 -114.5714 82° East 526 605 45,000  Level Salt Lake Center
07:15PM 38.9297 -114.3831 83° East 530 610 45,000  Level Salt Lake Center
07:16PM 38.9483 -114.1942 83° East 533 613 45,000  Level Salt Lake Center
07:17PM 38.9672 -114.0047 83° East 535 616 45,000  Level Salt Lake Center
07:18PM 38.9858 -113.8161 83° East 534 615 45,000  Level Salt Lake Center
07:19PM 39.0044 -113.6258 83° East 535 616 45,000  Level Salt Lake Center
07:20PM 39.0225 -113.4358 83° East 536 617 45,000  Level Salt Lake Center
07:22PM 39.0389 -113.2453 84° East 534 615 45,000  Level Salt Lake Center
07:23PM 39.0592 -113.0147 83° East 540 621 45,000  Level Salt Lake Center
07:24PM 39.0758 -112.8317 83° East 524 603 45,000  Level Salt Lake Center
07:25PM 39.0925 -112.6408 84° East 533 613 45,000  Level Salt Lake Center
07:26PM 39.1086 -112.4497 84° East 537 618 45,000  Level Salt Lake Center
07:27PM 39.1250 -112.2619 84° East 531 611 45,000  Level Salt Lake Center
07:28PM 39.1394 -112.0728 84° East 531 611 45,000  Level Salt Lake Center
07:29PM 39.1547 -111.8811 84° East 536 617 45,000  Level Salt Lake Center
07:30PM 39.1725 -111.6500 84° East 541 623 45,000  Level Salt Lake Center
07:31PM 39.1869 -111.4569 84° East 541 623 45,000  Level Salt Lake Center
07:32PM 39.2022 -111.2600 84° East 544 626 45,000  Level Salt Lake Center
07:33PM 39.2142 -111.0711 85° East 551 634 45,000  Level Salt Lake Center
07:34PM 39.2294 -110.8564 85° East 540 621 45,000  Level Salt Lake Center
07:35PM 39.2428 -110.6733 85° East 538 619 45,000  Level Salt Lake Center
07:36PM 39.2581 -110.4597 85° East 536 617 45,000  Level Salt Lake Center
07:37PM 39.2692 -110.2756 85° East 538 619 45,000  Level Salt Lake Center
07:38PM 39.2833 -110.0628 85° East 534 615 45,000  Level Salt Lake Center
07:39PM 39.2939 -109.8831 86° East 529 609 45,000  Level Salt Lake Center
07:40PM 39.3056 -109.7033 85° East 527 606 45,000  Level Salt Lake Center
07:41PM 39.3181 -109.4919 86° East 529 609 45,000  Level Salt Lake Center
07:42PM 39.3272 -109.3092 86° East 533 613 45,000 -540 Level Salt Lake Center
07:43PM 39.3422 -109.0981 85° East 532 612 43,900 -1,680 Descending Salt Lake Center
07:44PM 39.3794 -108.9183 75° East 546 628 41,600 -2,520 Descending Salt Lake Center
07:45PM 39.4208 -108.7072 76° East 550 633 38,800 -2,580 Descending Salt Lake Center
07:46PM 39.4569 -108.5239 76° East 555 639 36,300 -2,640 Descending Salt Lake Center
07:47PM 39.4989 -108.3092 76° East 558 642 33,500 -2,580 Descending Salt Lake Center
07:48PM 39.5333 -108.1264 76° East 552 635 31,100 -2,820 Descending Salt Lake Center
07:50PM 39.5853 -107.8547 76° East 545 627 26,700 -2,460 Descending Denver Center
07:51PM 39.6233 -107.6539 76° East 512 589 25,200 -1,560 Descending Denver Center
07:52PM 39.6500 -107.5081 77° East 445 512 23,500 -2,280 Descending Denver Center
07:53PM 39.6756 -107.3567 78° East 391 450 20,500 -3,000 Descending Denver Center
07:54PM 39.6517 -107.2417 105° East 353 406 17,400 -1,800 Descending Denver Center
07:55PM 39.5858 -107.1803 144° Southeast 302 348 16,900 -300 Descending Denver Center
07:56PM 39.5581 -107.0969 113° Southeast 271 312 16,900  Level Denver Center
07:57PM 39.5881 -107.0067 67° East 283 326 16,900  Level Denver Center
07:58PM 39.6494 -106.9408 40° Northeast 293 337 16,900  Level Denver Center
07:59PM 39.6597 -107.0033 282° West 227 261 16,900 -660 Level Denver Center
08:00PM 39.5967 -107.0211 192° South 210 242 15,600 -1,020 Descending Denver Center
08:01PM 39.5444 -107.0236 182° South 199 229 14,900 -600 Descending Denver Center
08:02PM 39.4972 -107.0003 159° South 183 211 14,400 -1,080 Descending Denver Center
08:03PM 39.4414 -106.9761 162° South 177 204 12,700 -1,380 Descending Denver Center
08:04PM 39.4036 -106.9611 163° South 164 189 11,600 -1,080 Descending Denver Center
08:05PM 39.3653 -106.9456 163° South 152 175 10,500 -1,020 Descending Denver Center
08:06PM 39.3256 -106.9311 164° South 150 173 9,500 -960 Descending Denver Center
08:07PM 39.2858 -106.9008 149° Southeast 145 167 8,600 -540 Descending Denver Center
08:08PM 39.2506 -106.8728 148° Southeast 146 168 8,400 -240 Descending Denver Center